Time;durP1;ratioP1;P1;durP2;ratioP2;P2;SDS_P1;SDS_P2;PMS_P1;PMS_P2;Temp;Humidity;BMP_temperature;BMP_pressure;BME280_temperature;BME280_humidity;BME280_pressure;Samples;Min_cycle;Max_cycle;Signal;HPM_P1;HPM_P2
2022/04/02 00:01:00;;;;;;;4.38;2.00;;;;;;;;;;4781560;29;20400;-71
2022/04/02 00:03:26;;;;;;;3.47;2.05;;;;;;;;;;4782101;29;20059;-71
2022/04/02 00:05:52;;;;;;;3.90;2.10;;;;;;;;;;4793635;29;20069;-71
2022/04/02 00:08:18;;;;;;;4.20;2.28;;;;;;;;;;4778961;29;20488;-71
2022/04/02 00:10:44;;;;;;;5.90;2.20;;;;;;;;;;4795785;29;20111;-71
2022/04/02 00:13:10;;;;;;;3.90;2.13;;;;;;;;;;4779391;29;20050;-70
2022/04/02 00:15:37;;;;;;;4.57;2.63;;;;;;;;;;4778150;29;20133;-71
2022/04/02 00:18:03;;;;;;;5.57;2.25;;;;;;;;;;4800628;29;20082;-71
2022/04/02 00:20:29;;;;;;;6.00;2.38;;;;;;;;;;4795330;29;20519;-70
2022/04/02 00:25:40;;;;;;;4.85;2.40;;;;;;;;;;4805399;29;20042;-71
2022/04/02 00:28:06;;;;;;;5.90;2.47;;;;;;;;;;4776134;29;20054;-71
2022/04/02 00:30:32;;;;;;;2.38;2.10;;;;;;;;;;4778089;29;20058;-71
2022/04/02 00:32:58;;;;;;;3.63;2.30;;;;;;;;;;4797066;29;20061;-71
2022/04/02 00:35:24;;;;;;;4.68;2.60;;;;;;;;;;4796214;29;20500;-71
2022/04/02 00:37:50;;;;;;;2.72;2.35;;;;;;;;;;4796927;29;20488;-70
2022/04/02 00:40:16;;;;;;;3.05;2.25;;;;;;;;;;4786995;29;20404;-70
2022/04/02 00:42:44;;;;;;;3.25;2.30;;;;;;;;;;4784488;29;20119;-70
2022/04/02 00:45:11;;;;;;;4.18;2.30;;;;;;;;;;4795352;29;20051;-70
2022/04/02 00:47:37;;;;;;;2.00;1.90;;;;;;;;;;4795214;29;20051;-71
2022/04/02 00:50:03;;;;;;;4.38;2.45;;;;;;;;;;4780780;29;20061;-70
2022/04/02 00:52:29;;;;;;;4.53;2.30;;;;;;;;;;4780874;29;20135;-70
2022/04/02 00:54:55;;;;;;;7.22;2.30;;;;;;;;;;4784894;29;20054;-70
2022/04/02 00:57:22;;;;;;;3.47;2.08;;;;;;;;;;4803303;29;20050;-70
2022/04/02 00:59:49;;;;;;;2.58;2.15;;;;;;;;;;4800215;29;20054;-70
2022/04/02 01:02:15;;;;;;;2.63;1.90;;;;;;;;;;4794040;29;20070;-70
2022/04/02 01:04:42;;;;;;;3.20;2.20;;;;;;;;;;4792505;29;20057;-70
2022/04/02 01:07:09;;;;;;;2.13;1.90;;;;;;;;;;4799965;29;20143;-70
2022/04/02 01:09:35;;;;;;;2.55;1.92;;;;;;;;;;4800143;29;20055;-70
2022/04/02 01:12:01;;;;;;;2.42;2.15;;;;;;;;;;4778790;29;20412;-70
2022/04/02 01:14:27;;;;;;;4.60;2.50;;;;;;;;;;4785251;29;20058;-70
2022/04/02 01:16:53;;;;;;;5.68;2.33;;;;;;;;;;4802159;29;20059;-70
2022/04/02 01:19:19;;;;;;;4.20;2.58;;;;;;;;;;4780937;29;20061;-70
2022/04/02 01:21:48;;;;;;;2.42;2.22;;;;;;;;;;4802375;29;20054;-70
2022/04/02 01:24:14;;;;;;;4.03;2.30;;;;;;;;;;4789715;29;20621;-70
2022/04/02 01:26:41;;;;;;;2.13;2.00;;;;;;;;;;4800538;29;20642;-70
2022/04/02 01:29:07;;;;;;;2.40;2.10;;;;;;;;;;4785079;29;20404;-71
2022/04/02 01:31:33;;;;;;;2.58;2.33;;;;;;;;;;4780565;29;20138;-70
2022/04/02 01:34:00;;;;;;;2.45;2.20;;;;;;;;;;4794954;29;20050;-70
2022/04/02 01:36:26;;;;;;;2.30;2.10;;;;;;;;;;4798882;29;20135;-70
2022/04/02 01:38:52;;;;;;;2.85;2.40;;;;;;;;;;4784973;29;20049;-71
2022/04/02 01:41:19;;;;;;;3.38;2.30;;;;;;;;;;4785317;29;20392;-71
2022/04/02 01:43:45;;;;;;;3.47;2.30;;;;;;;;;;4782168;29;21405;-71
2022/04/02 01:46:11;;;;;;;6.10;2.40;;;;;;;;;;4802325;29;20066;-71
2022/04/02 01:48:37;;;;;;;3.22;2.28;;;;;;;;;;4780966;29;20578;-71
2022/04/02 01:51:03;;;;;;;2.33;2.10;;;;;;;;;;4788338;29;20062;-70
2022/04/02 01:53:30;;;;;;;4.78;2.08;;;;;;;;;;4785522;29;20404;-71
2022/04/02 01:55:56;;;;;;;4.47;2.13;;;;;;;;;;4781041;29;20077;-71
2022/04/02 01:58:22;;;;;;;3.13;2.30;;;;;;;;;;4799576;29;20897;-71
2022/04/02 02:00:48;;;;;;;2.95;2.40;;;;;;;;;;4797530;29;20042;-71
2022/04/02 02:03:14;;;;;;;2.95;2.25;;;;;;;;;;4780349;29;20055;-71
2022/04/02 02:05:41;;;;;;;4.28;2.20;;;;;;;;;;4783056;29;20093;-70
2022/04/02 02:08:08;;;;;;;4.45;2.30;;;;;;;;;;4783453;29;20042;-71
2022/04/02 02:10:34;;;;;;;4.22;2.20;;;;;;;;;;4798460;29;20508;-71
2022/04/02 02:13:00;;;;;;;3.53;2.15;;;;;;;;;;4802097;29;20485;-70
2022/04/02 02:15:27;;;;;;;2.92;1.90;;;;;;;;;;4774681;29;20078;-71
2022/04/02 02:17:53;;;;;;;2.75;2.22;;;;;;;;;;4804723;29;20400;-70
2022/04/02 02:20:20;;;;;;;2.67;2.47;;;;;;;;;;4798894;29;20096;-70
2022/04/02 02:22:47;;;;;;;3.20;2.10;;;;;;;;;;4801513;29;20043;-70
2022/04/02 02:25:14;;;;;;;2.30;1.77;;;;;;;;;;4785717;29;20416;-69
2022/04/02 02:27:40;;;;;;;4.35;1.80;;;;;;;;;;4800440;29;20043;-70
2022/04/02 02:30:07;;;;;;;2.88;1.90;;;;;;;;;;4798613;29;20055;-70
2022/04/02 02:32:42;;;;;;;2.72;1.90;;;;;;;;;;4803536;29;20404;-70
2022/04/02 02:38:11;;;;;;;2.00;1.85;;;;;;;;;;4800737;29;20079;-70
2022/04/02 02:40:37;;;;;;;3.30;1.90;;;;;;;;;;4786104;29;20055;-72
2022/04/02 02:43:03;;;;;;;3.17;1.88;;;;;;;;;;4801816;29;20093;-70
2022/04/02 02:45:31;;;;;;;2.03;1.92;;;;;;;;;;4782134;29;20063;-70
2022/04/02 02:48:00;;;;;;;2.95;2.20;;;;;;;;;;4802766;29;20129;-70
2022/04/02 02:50:26;;;;;;;1.83;1.67;;;;;;;;;;4781528;29;20389;-70
2022/04/02 02:52:52;;;;;;;2.25;2.05;;;;;;;;;;4807588;29;20476;-70
2022/04/02 02:55:18;;;;;;;1.95;1.80;;;;;;;;;;4781502;29;20055;-70
2022/04/02 02:57:45;;;;;;;2.38;1.90;;;;;;;;;;4801407;29;20046;-71
2022/04/02 03:00:12;;;;;;;3.78;2.03;;;;;;;;;;4785517;29;20481;-70
2022/04/02 03:02:39;;;;;;;2.15;1.83;;;;;;;;;;4783891;29;20065;-71
2022/04/02 03:05:09;;;;;;;1.90;1.80;;;;;;;;;;4797153;29;20570;-71
2022/04/02 03:07:36;;;;;;;2.90;1.73;;;;;;;;;;4776867;29;20059;-70
2022/04/02 03:10:03;;;;;;;2.22;1.95;;;;;;;;;;4799182;29;20096;-70
2022/04/02 03:12:29;;;;;;;2.38;1.65;;;;;;;;;;4785252;29;20061;-71
2022/04/02 03:14:55;;;;;;;2.95;2.00;;;;;;;;;;4797095;29;20039;-70
2022/04/02 03:17:21;;;;;;;2.78;1.80;;;;;;;;;;4799735;29;20116;-71
2022/04/02 03:19:47;;;;;;;3.30;2.20;;;;;;;;;;4800169;29;20137;-70
2022/04/02 03:22:13;;;;;;;3.70;1.88;;;;;;;;;;4798563;29;20054;-70
2022/04/02 03:24:40;;;;;;;4.25;1.85;;;;;;;;;;4800037;29;20047;-70
2022/04/02 03:27:06;;;;;;;2.67;2.08;;;;;;;;;;4800342;29;20042;-70
2022/04/02 03:29:32;;;;;;;2.42;1.98;;;;;;;;;;4800263;29;20504;-70
2022/04/02 03:31:58;;;;;;;2.80;1.90;;;;;;;;;;4783671;29;20446;-70
2022/04/02 03:34:24;;;;;;;3.30;2.05;;;;;;;;;;4800243;29;20051;-70
2022/04/02 03:36:50;;;;;;;2.00;1.80;;;;;;;;;;4796934;29;20054;-70
2022/04/02 03:39:16;;;;;;;2.05;1.70;;;;;;;;;;4779156;29;20043;-70
2022/04/02 03:41:42;;;;;;;3.33;1.98;;;;;;;;;;4802691;29;20066;-70
2022/04/02 03:44:08;;;;;;;2.55;1.92;;;;;;;;;;4783867;29;20059;-70
2022/04/02 03:49:21;;;;;;;3.20;1.95;;;;;;;;;;4785609;29;20058;-70
2022/04/02 03:51:47;;;;;;;2.42;1.83;;;;;;;;;;4785744;29;20047;-70
2022/04/02 03:54:13;;;;;;;2.28;1.90;;;;;;;;;;4799198;29;20051;-70
2022/04/02 03:56:39;;;;;;;2.28;1.85;;;;;;;;;;4783130;29;20133;-71
2022/04/02 03:59:06;;;;;;;3.83;1.98;;;;;;;;;;4784303;29;20055;-70
2022/04/02 04:01:32;;;;;;;2.10;1.83;;;;;;;;;;4798134;29;20574;-70
2022/04/02 04:03:58;;;;;;;2.72;1.70;;;;;;;;;;4799441;29;20069;-70
2022/04/02 04:06:24;;;;;;;3.63;1.73;;;;;;;;;;4779050;29;20059;-70
2022/04/02 04:08:52;;;;;;;4.25;1.80;;;;;;;;;;4784342;29;20051;-70
2022/04/02 04:11:18;;;;;;;3.63;2.00;;;;;;;;;;4799962;29;20057;-70
2022/04/02 04:13:44;;;;;;;2.55;2.10;;;;;;;;;;4801173;29;20862;-70
2022/04/02 04:16:10;;;;;;;2.88;1.83;;;;;;;;;;4777296;29;20047;-70
2022/04/02 04:18:36;;;;;;;3.65;1.90;;;;;;;;;;4786377;29;20412;-71
2022/04/02 04:21:02;;;;;;;2.20;1.75;;;;;;;;;;4791912;29;20142;-70
2022/04/02 04:23:28;;;;;;;3.65;2.00;;;;;;;;;;4798147;29;20078;-70
2022/04/02 04:25:54;;;;;;;2.15;1.77;;;;;;;;;;4782433;29;20534;-70
2022/04/02 04:28:20;;;;;;;3.65;2.17;;;;;;;;;;4782830;29;20047;-70
2022/04/02 04:30:48;;;;;;;2.55;1.90;;;;;;;;;;4785692;29;20472;-70
2022/04/02 04:33:15;;;;;;;2.75;2.00;;;;;;;;;;4805072;29;20043;-70
2022/04/02 04:35:41;;;;;;;3.05;1.85;;;;;;;;;;4785944;29;20137;-70
2022/04/02 04:38:07;;;;;;;2.65;2.10;;;;;;;;;;4796854;29;20059;-71
2022/04/02 04:40:33;;;;;;;3.03;1.73;;;;;;;;;;4795888;29;20054;-70
2022/04/02 04:42:59;;;;;;;4.30;1.83;;;;;;;;;;4777463;30;20063;-71
2022/04/02 04:45:25;;;;;;;3.10;2.05;;;;;;;;;;4780488;29;20120;-70
2022/04/02 04:47:51;;;;;;;3.05;1.90;;;;;;;;;;4784381;29;20412;-70
2022/04/02 04:50:18;;;;;;;4.45;1.85;;;;;;;;;;4785618;30;20130;-71
2022/04/02 04:52:44;;;;;;;3.70;1.85;;;;;;;;;;4783252;29;20047;-70
2022/04/02 04:55:10;;;;;;;3.33;1.80;;;;;;;;;;4779826;29;20078;-70
2022/04/02 04:57:36;;;;;;;3.95;1.90;;;;;;;;;;4781348;30;20050;-71
2022/04/02 05:00:03;;;;;;;4.97;2.00;;;;;;;;;;4782578;29;20120;-70
2022/04/02 05:02:30;;;;;;;3.65;1.90;;;;;;;;;;4781063;30;20051;-70
2022/04/02 05:04:56;;;;;;;3.00;1.98;;;;;;;;;;4775678;29;20055;-71
2022/04/02 05:07:22;;;;;;;4.05;2.05;;;;;;;;;;4778906;29;20519;-71
2022/04/02 05:09:48;;;;;;;5.22;2.28;;;;;;;;;;4783866;30;20084;-70
2022/04/02 05:12:15;;;;;;;3.75;2.22;;;;;;;;;;4778414;29;20055;-70
2022/04/02 05:14:41;;;;;;;4.28;2.15;;;;;;;;;;4775123;29;20119;-70
2022/04/02 05:17:08;;;;;;;2.50;2.10;;;;;;;;;;4782965;30;20047;-70
2022/04/02 05:19:34;;;;;;;4.80;2.63;;;;;;;;;;4783218;29;20055;-70
2022/04/02 05:22:01;;;;;;;6.32;2.03;;;;;;;;;;4781797;29;20137;-70
2022/04/02 05:24:27;;;;;;;3.28;2.20;;;;;;;;;;4780497;30;20156;-70
2022/04/02 05:26:53;;;;;;;3.35;2.28;;;;;;;;;;4783425;29;20050;-70
2022/04/02 05:29:19;;;;;;;4.32;2.42;;;;;;;;;;4779159;29;20122;-71
2022/04/02 05:31:46;;;;;;;3.00;2.10;;;;;;;;;;4783219;30;20420;-70
2022/04/02 05:34:12;;;;;;;4.28;2.10;;;;;;;;;;4784689;30;20625;-69
2022/04/02 05:36:38;;;;;;;3.90;1.98;;;;;;;;;;4781307;30;20266;-70
2022/04/02 05:39:05;;;;;;;4.88;2.05;;;;;;;;;;4781115;29;20408;-70
2022/04/02 05:41:31;;;;;;;3.10;2.00;;;;;;;;;;4746975;29;1041370;-71
2022/04/02 05:43:57;;;;;;;5.00;2.10;;;;;;;;;;4795738;29;20531;-70
2022/04/02 05:46:23;;;;;;;2.75;2.00;;;;;;;;;;4800832;29;20420;-70
2022/04/02 05:48:49;;;;;;;2.88;2.17;;;;;;;;;;4786034;29;20078;-70
2022/04/02 05:51:18;;;;;;;4.07;2.30;;;;;;;;;;4787630;29;20082;-70
2022/04/02 05:53:44;;;;;;;2.90;2.25;;;;;;;;;;4797063;29;20085;-69
2022/04/02 05:56:10;;;;;;;3.72;1.98;;;;;;;;;;4804528;29;20082;-70
2022/04/02 05:58:37;;;;;;;3.45;2.10;;;;;;;;;;4782587;29;20093;-70
2022/04/02 06:01:04;;;;;;;3.13;2.35;;;;;;;;;;4781201;29;20134;-70
2022/04/02 06:03:30;;;;;;;4.82;2.50;;;;;;;;;;4797586;29;20485;-70
2022/04/02 06:05:56;;;;;;;3.53;2.30;;;;;;;;;;4786399;29;20061;-71
2022/04/02 06:08:22;;;;;;;2.90;2.30;;;;;;;;;;4798974;29;20062;-70
2022/04/02 06:10:48;;;;;;;3.10;2.08;;;;;;;;;;4801547;29;20050;-70
2022/04/02 06:13:14;;;;;;;4.88;1.92;;;;;;;;;;4800273;29;20385;-70
2022/04/02 06:15:40;;;;;;;2.90;2.20;;;;;;;;;;4803127;29;20056;-70
2022/04/02 06:18:11;;;;;;;4.93;2.22;;;;;;;;;;4794759;29;20164;-70
2022/04/02 06:20:37;;;;;;;3.17;2.28;;;;;;;;;;4802956;29;20092;-71
2022/04/02 06:23:03;;;;;;;3.45;2.22;;;;;;;;;;4802114;29;20050;-70
2022/04/02 06:25:29;;;;;;;3.55;2.00;;;;;;;;;;4803976;29;20556;-70
2022/04/02 06:27:55;;;;;;;2.80;2.35;;;;;;;;;;4801046;29;20054;-70
2022/04/02 06:30:22;;;;;;;3.35;2.17;;;;;;;;;;4786143;29;20054;-70
2022/04/02 06:32:48;;;;;;;3.15;2.63;;;;;;;;;;4800858;29;20078;-71
2022/04/02 06:35:14;;;;;;;5.13;2.90;;;;;;;;;;4800286;29;20538;-70
2022/04/02 06:37:41;;;;;;;2.95;2.30;;;;;;;;;;4785301;29;20088;-71
2022/04/02 06:40:09;;;;;;;4.43;2.40;;;;;;;;;;4801474;29;20120;-70
2022/04/02 06:42:36;;;;;;;2.50;2.10;;;;;;;;;;4774098;29;20059;-70
2022/04/02 06:45:02;;;;;;;3.65;2.20;;;;;;;;;;4784263;29;20523;-70
2022/04/02 06:47:33;;;;;;;5.15;2.40;;;;;;;;;;4799689;29;20065;-70
2022/04/02 06:50:02;;;;;;;2.20;2.00;;;;;;;;;;4801042;29;20057;-70
2022/04/02 06:52:28;;;;;;;3.00;2.30;;;;;;;;;;4785798;29;20137;-70
2022/04/02 06:54:54;;;;;;;2.97;2.17;;;;;;;;;;4802262;29;20119;-70
2022/04/02 06:57:20;;;;;;;3.25;2.20;;;;;;;;;;4797107;29;20054;-70
2022/04/02 06:59:47;;;;;;;3.25;2.20;;;;;;;;;;4781429;29;20134;-70
2022/04/02 07:02:13;;;;;;;4.75;1.90;;;;;;;;;;4793558;29;20062;-70
2022/04/02 07:04:40;;;;;;;2.90;1.80;;;;;;;;;;4782244;29;20078;-70
2022/04/02 07:07:06;;;;;;;3.03;2.40;;;;;;;;;;4781145;29;20046;-71
2022/04/02 07:09:32;;;;;;;3.00;2.10;;;;;;;;;;4801668;29;20054;-71
2022/04/02 07:11:58;;;;;;;4.75;2.30;;;;;;;;;;4801108;29;20163;-71
2022/04/02 07:14:24;;;;;;;3.25;2.50;;;;;;;;;;4797778;29;20176;-70
2022/04/02 07:16:50;;;;;;;4.32;2.65;;;;;;;;;;4782001;29;20047;-71
2022/04/02 07:19:20;;;;;;;2.95;2.35;;;;;;;;;;4785426;29;20058;-71
2022/04/02 07:21:47;;;;;;;3.83;2.17;;;;;;;;;;4800807;29;20418;-71
2022/04/02 07:24:14;;;;;;;3.45;2.28;;;;;;;;;;4772570;29;20042;-71
2022/04/02 07:26:40;;;;;;;2.53;1.83;;;;;;;;;;4794276;29;21349;-71
2022/04/02 07:29:09;;;;;;;4.70;2.20;;;;;;;;;;4799408;29;20042;-71
2022/04/02 07:31:35;;;;;;;5.88;2.00;;;;;;;;;;4783758;29;20069;-71
2022/04/02 07:34:01;;;;;;;2.13;1.80;;;;;;;;;;4798219;29;20473;-71
2022/04/02 07:36:41;;;;;;;5.15;2.30;;;;;;;;;;4801686;29;20496;-71
2022/04/02 07:39:15;;;;;;;2.63;2.10;;;;;;;;;;4792688;29;20162;-71
2022/04/02 07:42:19;;;;;;;4.18;2.00;;;;;;;;;;4793512;29;20059;-71
2022/04/02 07:44:48;;;;;;;2.92;2.13;;;;;;;;;;4741767;30;20044;-71
2022/04/02 07:47:15;;;;;;;3.63;2.10;;;;;;;;;;4729303;30;20502;-71
2022/04/02 07:49:45;;;;;;;4.55;2.13;;;;;;;;;;4772438;29;20187;-71
2022/04/02 07:52:12;;;;;;;2.60;1.52;;;;;;;;;;4785007;29;20488;-71
2022/04/02 07:54:41;;;;;;;3.00;1.77;;;;;;;;;;4796068;29;20058;-71
2022/04/02 07:57:08;;;;;;;2.53;1.58;;;;;;;;;;4801662;29;20047;-71
2022/04/02 07:59:38;;;;;;;1.77;1.65;;;;;;;;;;4798264;29;20046;-71
2022/04/02 08:02:36;;;;;;;4.43;1.70;;;;;;;;;;4793052;29;20092;-71
2022/04/02 08:04:51;;;;;;;3.20;1.40;;;;;;;;;;4794064;29;20050;-71
2022/04/02 08:07:17;;;;;;;3.53;1.70;;;;;;;;;;4803030;29;20046;-71
2022/04/02 08:09:44;;;;;;;2.08;1.60;;;;;;;;;;4798872;29;20059;-71
2022/04/02 08:12:13;;;;;;;1.80;1.60;;;;;;;;;;4805493;29;20492;-71
2022/04/02 08:14:40;;;;;;;1.98;1.70;;;;;;;;;;4782942;29;20066;-71
2022/04/02 08:17:08;;;;;;;2.45;1.60;;;;;;;;;;4802293;29;20042;-71
2022/04/02 08:19:37;;;;;;;2.00;1.40;;;;;;;;;;4805369;29;20065;-71
2022/04/02 08:22:03;;;;;;;6.35;1.63;;;;;;;;;;4805901;29;20050;-72
2022/04/02 08:24:29;;;;;;;3.25;1.50;;;;;;;;;;4803840;29;20151;-72
2022/04/02 08:27:09;;;;;;;1.73;1.38;;;;;;;;;;4803566;29;20173;-72
2022/04/02 08:29:54;;;;;;;3.15;1.42;;;;;;;;;;4793537;29;20142;-72
2022/04/02 08:32:20;;;;;;;1.75;1.65;;;;;;;;;;4803421;29;20383;-72
2022/04/02 08:34:54;;;;;;;1.50;1.40;;;;;;;;;;4800045;29;20058;-71
2022/04/02 08:37:34;;;;;;;3.28;1.35;;;;;;;;;;4806767;29;20054;-72
2022/04/02 08:40:03;;;;;;;1.50;1.38;;;;;;;;;;4788521;29;20050;-71
2022/04/02 08:42:48;;;;;;;1.40;1.30;;;;;;;;;;4782429;29;20055;-72
2022/04/02 08:45:15;;;;;;;2.35;1.50;;;;;;;;;;4788025;29;20058;-72
2022/04/02 08:48:05;;;;;;;1.65;1.40;;;;;;;;;;4805698;29;20053;-71
2022/04/02 08:50:33;;;;;;;1.42;1.33;;;;;;;;;;4806627;29;20567;-72
2022/04/02 08:53:17;;;;;;;3.90;1.42;;;;;;;;;;4789279;29;20078;-72
2022/04/02 08:55:48;;;;;;;1.60;1.30;;;;;;;;;;4785458;29;20059;-71
2022/04/02 08:58:20;;;;;;;2.08;1.30;;;;;;;;;;4786705;29;20483;-71
2022/04/02 09:01:01;;;;;;;1.55;1.20;;;;;;;;;;4802677;29;20107;-71
2022/04/02 09:03:27;;;;;;;3.35;1.50;;;;;;;;;;4802764;29;20444;-71
2022/04/02 09:06:15;;;;;;;1.67;1.23;;;;;;;;;;4787603;29;20124;-71
2022/04/02 09:08:47;;;;;;;1.85;1.48;;;;;;;;;;4787954;29;20090;-70
2022/04/02 09:11:24;;;;;;;2.13;1.20;;;;;;;;;;4799562;29;20122;-72
2022/04/02 09:14:09;;;;;;;1.20;1.20;;;;;;;;;;4803107;29;20496;-72
2022/04/02 09:16:37;;;;;;;1.42;1.27;;;;;;;;;;4802915;29;20429;-71
2022/04/02 09:19:39;;;;;;;2.83;1.45;;;;;;;;;;4785851;29;20523;-72
2022/04/02 09:22:21;;;;;;;2.00;1.30;;;;;;;;;;4754757;30;20094;-72
2022/04/02 09:24:59;;;;;;;2.00;1.45;;;;;;;;;;4794988;29;20508;-72
2022/04/02 09:27:31;;;;;;;1.50;1.40;;;;;;;;;;4801949;29;20090;-72
2022/04/02 09:30:12;;;;;;;2.42;1.38;;;;;;;;;;4800907;29;20051;-72
2022/04/02 09:32:57;;;;;;;1.20;1.10;;;;;;;;;;4783161;29;20055;-70
2022/04/02 09:35:34;;;;;;;4.70;1.52;;;;;;;;;;4783662;29;20138;-71
2022/04/02 09:38:26;;;;;;;1.48;1.38;;;;;;;;;;4798600;29;20051;-72
2022/04/02 09:40:53;;;;;;;1.70;1.40;;;;;;;;;;4814244;29;20082;-71
2022/04/02 09:43:26;;;;;;;1.50;1.40;;;;;;;;;;4783324;29;20051;-72
2022/04/02 09:46:08;;;;;;;2.53;1.33;;;;;;;;;;4768286;29;20054;-71
2022/04/02 09:48:51;;;;;;;2.17;1.40;;;;;;;;;;4796048;29;20089;-71
2022/04/02 09:51:20;;;;;;;3.70;1.90;;;;;;;;;;4800048;29;20063;-71
2022/04/02 09:53:54;;;;;;;2.40;1.50;;;;;;;;;;4782933;29;20658;-71
2022/04/02 09:56:20;;;;;;;3.53;1.58;;;;;;;;;;4803115;29;20050;-72
2022/04/02 09:58:46;;;;;;;4.50;1.63;;;;;;;;;;4801247;29;20047;-72
2022/04/02 10:01:36;;;;;;;2.60;1.40;;;;;;;;;;4782517;29;20074;-72
2022/04/02 10:04:31;;;;;;;2.08;1.48;;;;;;;;;;4776013;29;20055;-71
2022/04/02 10:06:58;;;;;;;1.77;1.50;;;;;;;;;;4763823;29;20143;-72
2022/04/02 10:09:28;;;;;;;1.50;1.40;;;;;;;;;;4783983;29;20054;-72
2022/04/02 10:11:55;;;;;;;1.60;1.50;;;;;;;;;;4804267;29;20061;-72
2022/04/02 10:14:23;;;;;;;2.15;1.35;;;;;;;;;;4802540;29;20042;-72
2022/04/02 10:17:08;;;;;;;1.48;1.30;;;;;;;;;;4801298;29;20042;-72
2022/04/02 10:19:35;;;;;;;2.60;1.42;;;;;;;;;;4799995;29;20045;-71
2022/04/02 10:22:03;;;;;;;1.65;1.55;;;;;;;;;;4786492;29;20046;-71
2022/04/02 10:24:34;;;;;;;1.92;1.33;;;;;;;;;;4784299;29;20076;-72
2022/04/02 10:27:02;;;;;;;1.92;1.33;;;;;;;;;;4799657;29;20051;-72
2022/04/02 10:29:58;;;;;;;1.55;1.45;;;;;;;;;;4800747;29;20054;-72
2022/04/02 10:32:39;;;;;;;2.17;1.40;;;;;;;;;;4781275;29;20059;-72
2022/04/02 10:35:11;;;;;;;3.83;1.45;;;;;;;;;;4780486;29;20385;-71
2022/04/02 10:37:56;;;;;;;3.80;1.40;;;;;;;;;;4787815;29;20050;-71
2022/04/02 10:40:25;;;;;;;2.13;1.05;;;;;;;;;;4799799;29;20132;-72
2022/04/02 10:42:53;;;;;;;1.80;1.33;;;;;;;;;;4784657;29;20070;-71
2022/04/02 10:45:20;;;;;;;1.88;1.50;;;;;;;;;;4797437;29;20493;-71
2022/04/02 10:47:50;;;;;;;2.25;1.35;;;;;;;;;;4798676;29;20042;-71
2022/04/02 10:50:24;;;;;;;1.42;1.33;;;;;;;;;;4801948;29;20099;-71
2022/04/02 10:52:50;;;;;;;1.98;1.40;;;;;;;;;;4785339;29;20353;-72
2022/04/02 10:55:17;;;;;;;1.75;1.42;;;;;;;;;;4799299;29;20053;-70
2022/04/02 10:57:44;;;;;;;2.42;1.48;;;;;;;;;;4783274;29;20050;-71
2022/04/02 11:00:11;;;;;;;1.42;1.27;;;;;;;;;;4801361;29;20046;-71
2022/04/02 11:02:37;;;;;;;2.45;1.30;;;;;;;;;;4781358;29;20074;-70
2022/04/02 11:05:08;;;;;;;1.38;1.27;;;;;;;;;;4798447;29;20078;-71
2022/04/02 11:07:37;;;;;;;1.83;1.20;;;;;;;;;;4783389;29;20043;-71
2022/04/02 11:10:04;;;;;;;2.20;1.33;;;;;;;;;;4802821;29;20053;-71
2022/04/02 11:12:38;;;;;;;2.70;1.33;;;;;;;;;;4797912;29;20062;-71
2022/04/02 11:15:20;;;;;;;1.95;1.52;;;;;;;;;;4800380;29;20125;-71
2022/04/02 11:18:05;;;;;;;2.15;1.20;;;;;;;;;;4794301;29;20101;-70
2022/04/02 11:20:32;;;;;;;2.72;1.42;;;;;;;;;;4784382;29;20074;-71
2022/04/02 11:23:07;;;;;;;1.30;1.20;;;;;;;;;;4787298;29;20054;-71
2022/04/02 11:25:34;;;;;;;2.75;1.50;;;;;;;;;;4802339;29;20078;-71
2022/04/02 11:28:09;;;;;;;1.52;1.20;;;;;;;;;;4783999;29;20039;-71
2022/04/02 11:30:37;;;;;;;3.60;1.40;;;;;;;;;;4784811;29;20050;-71
2022/04/02 11:33:06;;;;;;;1.38;1.20;;;;;;;;;;4783384;29;20054;-71
2022/04/02 11:35:37;;;;;;;2.13;1.30;;;;;;;;;;4784931;29;20062;-71
2022/04/02 11:38:09;;;;;;;1.88;1.30;;;;;;;;;;4780841;29;20496;-71
2022/04/02 11:40:39;;;;;;;3.90;1.30;;;;;;;;;;4801159;29;20105;-70
2022/04/02 11:43:06;;;;;;;1.40;1.30;;;;;;;;;;4781372;29;20512;-71
2022/04/02 11:45:32;;;;;;;1.38;1.27;;;;;;;;;;4782634;29;20496;-71
2022/04/02 11:48:00;;;;;;;2.40;1.40;;;;;;;;;;4801608;29;20047;-71
2022/04/02 11:50:29;;;;;;;2.72;1.42;;;;;;;;;;4784679;29;20058;-71
2022/04/02 11:53:00;;;;;;;3.25;1.30;;;;;;;;;;4801768;29;20501;-71
2022/04/02 11:55:27;;;;;;;1.92;1.10;;;;;;;;;;4796001;29;20488;-71
2022/04/02 11:57:59;;;;;;;2.55;1.40;;;;;;;;;;4799534;29;20927;-71
2022/04/02 12:00:30;;;;;;;2.78;1.52;;;;;;;;;;4800687;29;20055;-71
2022/04/02 12:02:56;;;;;;;2.00;1.30;;;;;;;;;;4797935;29;20055;-71
2022/04/02 12:05:33;;;;;;;1.65;1.35;;;;;;;;;;4782334;29;20133;-71
2022/04/02 12:07:59;;;;;;;1.25;1.23;;;;;;;;;;4784141;29;20500;-71
2022/04/02 12:10:27;;;;;;;1.30;1.20;;;;;;;;;;4783281;29;20058;-71
2022/04/02 12:12:54;;;;;;;3.15;1.58;;;;;;;;;;4783785;29;20050;-71
2022/04/02 12:15:21;;;;;;;2.08;1.50;;;;;;;;;;4783459;29;20043;-71
2022/04/02 12:18:01;;;;;;;2.00;1.40;;;;;;;;;;4782566;29;20042;-71
2022/04/02 12:20:35;;;;;;;2.80;1.30;;;;;;;;;;4800148;29;20051;-71
2022/04/02 12:23:07;;;;;;;1.40;1.30;;;;;;;;;;4800775;29;20046;-71
2022/04/02 12:25:34;;;;;;;1.25;1.23;;;;;;;;;;4802178;29;20051;-71
2022/04/02 12:28:00;;;;;;;1.40;1.30;;;;;;;;;;4797429;29;20050;-72
2022/04/02 12:30:31;;;;;;;2.10;1.25;;;;;;;;;;4781013;29;20058;-72
2022/04/02 12:33:07;;;;;;;2.05;1.35;;;;;;;;;;4782344;29;20049;-71
2022/04/02 12:35:34;;;;;;;1.77;1.40;;;;;;;;;;4799091;29;20070;-71
2022/04/02 12:38:02;;;;;;;2.17;1.60;;;;;;;;;;4795952;29;20043;-71
2022/04/02 12:40:32;;;;;;;3.78;1.48;;;;;;;;;;4803173;29;20536;-71
2022/04/02 12:43:02;;;;;;;4.53;1.83;;;;;;;;;;4784190;29;20055;-72
2022/04/02 12:45:29;;;;;;;1.85;1.30;;;;;;;;;;4783891;29;20058;-71
2022/04/02 12:47:56;;;;;;;1.42;1.33;;;;;;;;;;4778243;29;20528;-71
2022/04/02 12:50:22;;;;;;;2.83;1.50;;;;;;;;;;4787418;29;20591;-72
2022/04/02 12:52:49;;;;;;;2.25;1.30;;;;;;;;;;4787953;29;20129;-72
2022/04/02 12:55:31;;;;;;;1.95;1.50;;;;;;;;;;4805202;29;20515;-72
2022/04/02 12:58:00;;;;;;;1.50;1.40;;;;;;;;;;4787766;29;20407;-72
2022/04/02 13:00:31;;;;;;;3.50;1.40;;;;;;;;;;4803865;29;20084;-75
2022/04/02 13:02:58;;;;;;;1.95;1.67;;;;;;;;;;4804749;29;20137;-72
2022/04/02 13:05:44;;;;;;;2.38;1.40;;;;;;;;;;4801520;29;20540;-71
2022/04/02 13:08:14;;;;;;;1.90;1.30;;;;;;;;;;4785979;29;20528;-72
2022/04/02 13:10:44;;;;;;;3.92;1.30;;;;;;;;;;4800050;29;20039;-71
2022/04/02 13:13:12;;;;;;;1.83;1.25;;;;;;;;;;4801007;29;20492;-70
2022/04/02 13:15:38;;;;;;;3.05;1.30;;;;;;;;;;4797662;29;20042;-71
2022/04/02 13:20:56;;;;;;;4.70;1.42;;;;;;;;;;4798986;29;20111;-70
2022/04/02 13:23:38;;;;;;;2.63;1.42;;;;;;;;;;4787341;29;20055;-70
2022/04/02 13:26:05;;;;;;;1.55;1.20;;;;;;;;;;4805294;29;20047;-71
2022/04/02 13:28:37;;;;;;;3.08;1.30;;;;;;;;;;4786059;29;20058;-70
2022/04/02 13:31:03;;;;;;;3.33;1.88;;;;;;;;;;4789198;29;20054;-70
2022/04/02 13:33:38;;;;;;;3.35;1.40;;;;;;;;;;4801118;29;20509;-71
2022/04/02 13:36:21;;;;;;;3.15;1.35;;;;;;;;;;4798334;29;20068;-70
2022/04/02 13:38:58;;;;;;;1.83;1.42;;;;;;;;;;4799798;29;20063;-70
2022/04/02 13:41:26;;;;;;;1.60;1.40;;;;;;;;;;4787731;29;20288;-70
2022/04/02 13:43:54;;;;;;;1.33;1.33;;;;;;;;;;4803522;29;20122;-70
2022/04/02 13:46:24;;;;;;;2.15;1.60;;;;;;;;;;4794520;29;20053;-71
2022/04/02 13:49:09;;;;;;;1.55;1.40;;;;;;;;;;4803602;29;20126;-70
2022/04/02 13:51:40;;;;;;;2.22;1.70;;;;;;;;;;4804986;29;20047;-70
2022/04/02 13:54:11;;;;;;;1.58;1.40;;;;;;;;;;4798689;29;20051;-71
2022/04/02 13:56:38;;;;;;;1.50;1.38;;;;;;;;;;4777855;29;20069;-72
2022/04/02 13:59:11;;;;;;;2.65;1.50;;;;;;;;;;4786547;29;20042;-71
2022/04/02 14:01:39;;;;;;;2.45;1.52;;;;;;;;;;4785798;29;20531;-71
2022/04/02 14:04:09;;;;;;;1.40;1.40;;;;;;;;;;4802724;29;20155;-71
2022/04/02 14:06:36;;;;;;;1.92;1.48;;;;;;;;;;4792073;29;20413;-71
2022/04/02 14:09:04;;;;;;;1.73;1.55;;;;;;;;;;4783189;29;20089;-71
2022/04/02 14:11:40;;;;;;;1.83;1.52;;;;;;;;;;4782987;29;20050;-71
2022/04/02 14:14:06;;;;;;;3.00;1.30;;;;;;;;;;4804634;29;20100;-71
2022/04/02 14:16:33;;;;;;;2.00;1.60;;;;;;;;;;4804133;29;20107;-71
2022/04/02 14:19:04;;;;;;;2.35;1.52;;;;;;;;;;4789431;29;20141;-71
2022/04/02 14:21:31;;;;;;;1.30;1.20;;;;;;;;;;4807206;29;20129;-71
2022/04/02 14:24:02;;;;;;;1.20;1.20;;;;;;;;;;4804507;29;20086;-71
2022/04/02 14:26:31;;;;;;;1.92;1.30;;;;;;;;;;4780158;29;20121;-71
2022/04/02 14:29:10;;;;;;;2.03;1.70;;;;;;;;;;4798226;29;20112;-71
2022/04/02 14:31:41;;;;;;;1.77;1.60;;;;;;;;;;4800557;29;20056;-71
2022/04/02 14:34:34;;;;;;;2.42;1.30;;;;;;;;;;4803962;29;20057;-71
2022/04/02 14:37:00;;;;;;;2.70;1.40;;;;;;;;;;4766166;29;20120;-71
2022/04/02 14:39:32;;;;;;;1.40;1.30;;;;;;;;;;4786411;29;20086;-71
2022/04/02 14:42:02;;;;;;;3.17;1.50;;;;;;;;;;4786334;29;20142;-72
2022/04/02 14:44:51;;;;;;;2.78;1.38;;;;;;;;;;4802729;29;20389;-72
2022/04/02 14:47:30;;;;;;;1.35;1.25;;;;;;;;;;4805740;29;20047;-72
2022/04/02 14:50:08;;;;;;;1.30;1.20;;;;;;;;;;4804161;29;20055;-72
2022/04/02 14:53:04;;;;;;;2.45;1.20;;;;;;;;;;4806869;29;20055;-70
2022/04/02 14:55:42;;;;;;;1.20;1.20;;;;;;;;;;4800599;29;20393;-72
2022/04/02 14:58:08;;;;;;;1.40;1.30;;;;;;;;;;4785239;29;20039;-72
2022/04/02 15:00:37;;;;;;;2.05;1.30;;;;;;;;;;4782868;29;20497;-73
2022/04/02 15:03:23;;;;;;;1.30;1.20;;;;;;;;;;4797121;29;20043;-72
2022/04/02 15:06:06;;;;;;;2.08;1.30;;;;;;;;;;4773828;29;20515;-73
2022/04/02 15:08:52;;;;;;;1.95;1.30;;;;;;;;;;4803087;29;20089;-72